createdAt,value
2019-05-23T00:02:53.674Z,1.12
2019-05-23T00:08:18.692Z,1.50
2019-05-23T00:14:00.295Z,1.40
2019-05-23T00:19:23.431Z,1.82
2019-05-23T00:24:47.569Z,1.60
2019-05-23T00:30:12.660Z,1.35
2019-05-23T00:35:35.032Z,1.45
2019-05-23T00:40:57.019Z,1.45
2019-05-23T00:46:19.245Z,1.47
2019-05-23T00:51:41.334Z,1.55
2019-05-23T00:57:04.132Z,1.50
2019-05-23T01:02:28.309Z,1.80
2019-05-23T01:07:50.324Z,1.60
2019-05-23T01:13:13.837Z,1.98
2019-05-23T01:18:36.765Z,1.70
2019-05-23T01:24:18.410Z,1.75
2019-05-23T01:29:50.256Z,1.85
2019-05-23T01:35:14.482Z,1.62
2019-05-23T01:40:37.115Z,1.62
2019-05-23T01:45:59.743Z,1.80
2019-05-23T01:51:42.558Z,1.90
2019-05-23T01:57:05.071Z,2.12
2019-05-23T02:02:28.827Z,1.85
2019-05-23T02:07:50.723Z,2.10
2019-05-23T02:13:12.031Z,2.12
2019-05-23T02:18:34.861Z,2.00
2019-05-23T02:23:57.115Z,2.12
2019-05-23T02:29:20.012Z,2.00
2019-05-23T02:34:43.427Z,2.60
2019-05-23T02:40:30.516Z,2.30
2019-05-23T02:45:57.192Z,2.20
2019-05-23T02:51:25.586Z,2.10
2019-05-23T02:56:47.253Z,2.30
2019-05-23T03:03:08.159Z,2.15
2019-05-23T03:08:31.812Z,2.80
2019-05-23T03:13:55.362Z,2.70
2019-05-23T03:19:28.442Z,2.50
2019-05-23T03:24:51.149Z,2.40
2019-05-23T03:30:18.761Z,2.50
2019-05-23T03:35:43.270Z,2.22
2019-05-23T03:41:05.812Z,2.20
2019-05-23T03:46:29.247Z,2.10
2019-05-23T03:51:52.249Z,2.17
2019-05-23T03:57:15.322Z,2.20
2019-05-23T04:02:39.252Z,2.05
2019-05-23T04:08:01.323Z,2.60
2019-05-23T04:13:23.312Z,2.30
2019-05-23T04:18:46.023Z,2.30
2019-05-23T04:24:07.740Z,2.05
2019-05-23T04:29:29.970Z,2.30
2019-05-23T04:34:52.185Z,2.35
2019-05-23T04:40:14.799Z,2.30
2019-05-23T04:45:36.626Z,2.47
2019-05-23T04:51:00.263Z,2.90
2019-05-23T04:56:22.476Z,2.67
2019-05-23T05:01:44.012Z,2.50
2019-05-23T05:07:05.957Z,2.52
2019-05-23T05:12:28.065Z,2.42
2019-05-23T05:17:50.167Z,2.33
2019-05-23T05:23:12.132Z,1.95
2019-05-23T05:28:33.939Z,1.27
2019-05-23T05:33:55.791Z,1.40
2019-05-23T05:39:17.581Z,1.42
2019-05-23T05:44:39.194Z,1.45
2019-05-23T05:50:02.277Z,1.40
2019-05-23T05:55:24.521Z,1.70
2019-05-23T06:01:00.630Z,1.70
2019-05-23T06:06:27.674Z,1.80
2019-05-23T06:11:51.370Z,1.65
2019-05-23T06:17:15.394Z,1.45
2019-05-23T06:22:37.593Z,1.40
2019-05-23T06:28:00.292Z,1.30
2019-05-23T06:33:24.299Z,1.52
2019-05-23T06:38:46.846Z,1.60
2019-05-23T06:44:10.129Z,1.60
2019-05-23T06:49:32.173Z,1.87
2019-05-23T06:54:54.165Z,1.90
2019-05-23T07:00:20.017Z,1.80
2019-05-23T07:05:42.561Z,1.80
2019-05-23T07:11:04.291Z,2.05
2019-05-23T07:16:25.718Z,1.70
2019-05-23T07:21:47.843Z,1.75
2019-05-23T07:27:09.789Z,1.32
2019-05-23T07:32:31.686Z,1.55
2019-05-23T07:37:53.585Z,1.70
2019-05-23T07:43:15.676Z,1.60
2019-05-23T07:48:37.434Z,1.75
2019-05-23T07:54:21.250Z,1.40
2019-05-23T07:59:45.031Z,1.60
2019-05-23T08:05:08.925Z,1.50
2019-05-23T08:10:34.146Z,1.80
2019-05-23T08:15:55.846Z,2.00
2019-05-23T08:21:18.296Z,2.25
2019-05-23T08:26:51.726Z,1.80
2019-05-23T08:32:19.120Z,1.90
2019-05-23T08:37:52.939Z,1.40
2019-05-23T08:43:14.631Z,1.57
2019-05-23T08:48:37.280Z,1.20
2019-05-23T08:53:59.180Z,1.50
2019-05-23T08:59:21.741Z,1.60
2019-05-23T09:05:02.309Z,1.55
2019-05-23T09:10:08.086Z,1.55
2019-05-23T09:15:29.997Z,1.42
2019-05-23T09:20:51.806Z,1.50
2019-05-23T09:26:13.849Z,1.40
2019-05-23T09:31:35.758Z,1.37
2019-05-23T09:37:00.282Z,1.70
2019-05-23T09:42:21.516Z,1.60
2019-05-23T09:47:43.385Z,1.60
2019-05-23T09:53:04.921Z,1.65
2019-05-23T09:58:26.619Z,1.57
2019-05-23T10:03:48.621Z,1.60
2019-05-23T10:09:10.322Z,1.70
2019-05-23T10:14:34.678Z,1.80
2019-05-23T10:19:56.874Z,1.82
2019-05-23T10:25:18.194Z,2.40
2019-05-23T10:30:39.874Z,1.90
2019-05-23T10:36:01.526Z,2.15
2019-05-23T10:41:23.603Z,3.58
2019-05-23T10:46:45.333Z,1.77
2019-05-23T10:52:07.102Z,1.80
2019-05-23T10:57:29.141Z,2.02
2019-05-23T11:02:51.929Z,1.98
2019-05-23T11:08:14.730Z,1.80
2019-05-23T11:13:40.926Z,2.12
2019-05-23T11:19:03.328Z,2.20
2019-05-23T11:24:25.459Z,2.40
2019-05-23T11:29:46.783Z,1.90
2019-05-23T11:35:08.713Z,2.10
2019-05-23T11:40:33.528Z,2.22
2019-05-23T11:45:59.175Z,2.00
2019-05-23T11:51:25.259Z,2.10
2019-05-23T11:56:45.873Z,2.00
2019-05-23T12:02:14.650Z,2.17
2019-05-23T12:07:37.720Z,2.00
2019-05-23T12:12:59.442Z,2.02
2019-05-23T12:18:22.372Z,2.30
2019-05-23T12:23:44.730Z,2.47
2019-05-23T12:29:09.358Z,2.52
2019-05-23T12:34:31.127Z,2.05
2019-05-23T12:39:53.725Z,1.92
2019-05-23T12:45:15.651Z,2.00
2019-05-23T12:50:40.888Z,2.10
2019-05-23T12:56:03.617Z,1.75
2019-05-23T13:01:26.640Z,2.10
2019-05-23T13:06:48.494Z,2.12
2019-05-23T13:12:09.997Z,2.00
2019-05-23T13:17:31.726Z,1.80
2019-05-23T13:22:53.528Z,2.02
2019-05-23T13:28:15.360Z,1.85
2019-05-23T13:33:36.580Z,2.00
2019-05-23T13:38:58.729Z,1.77
2019-05-23T13:44:33.049Z,1.85
2019-05-23T13:49:44.263Z,2.02
2019-05-23T13:55:06.173Z,1.80
2019-05-23T14:00:29.911Z,1.93
2019-05-23T14:05:51.684Z,1.98
2019-05-23T14:11:14.603Z,1.80
2019-05-23T14:16:48.666Z,2.10
2019-05-23T14:22:10.652Z,2.00
2019-05-23T14:28:00.362Z,2.25
2019-05-23T14:33:53.306Z,2.42
2019-05-23T14:39:26.224Z,2.40
2019-05-23T14:44:48.484Z,2.37
2019-05-23T14:50:23.496Z,2.80
2019-05-23T14:55:45.073Z,2.40
2019-05-23T15:01:09.342Z,2.50
2019-05-23T15:06:31.243Z,3.72
2019-05-23T15:11:53.470Z,2.12
2019-05-23T15:17:15.273Z,1.80
2019-05-23T15:22:36.891Z,2.00
2019-05-23T15:28:05.459Z,2.05
2019-05-23T15:33:27.610Z,2.12
2019-05-23T15:38:49.364Z,2.12
2019-05-23T15:44:23.883Z,1.80
2019-05-23T15:49:36.580Z,1.77
2019-05-23T15:55:05.811Z,1.75
2019-05-23T16:00:48.221Z,1.80
2019-05-23T16:06:12.992Z,1.70
2019-05-23T16:11:35.120Z,2.20
2019-05-23T16:16:57.555Z,2.15
2019-05-23T16:22:19.480Z,1.98
2019-05-23T16:27:41.206Z,1.90
2019-05-23T16:33:02.979Z,1.98
2019-05-23T16:38:25.125Z,2.50
2019-05-23T16:43:46.655Z,1.85
2019-05-23T16:49:08.543Z,2.10
2019-05-23T16:54:35.380Z,2.00
2019-05-23T17:00:15.454Z,2.00
2019-05-23T17:05:47.435Z,3.35
2019-05-23T17:11:34.083Z,2.98
2019-05-23T17:17:38.383Z,4.22
2019-05-23T17:23:01.317Z,2.90
2019-05-23T17:28:37.085Z,2.50
2019-05-23T17:33:59.100Z,2.52
2019-05-23T17:39:23.553Z,2.50
2019-05-23T17:44:46.089Z,3.00
2019-05-23T17:50:14.877Z,2.80
2019-05-23T17:55:37.142Z,2.95
2019-05-23T18:00:59.425Z,3.40
2019-05-23T18:06:22.611Z,3.30
2019-05-23T18:11:44.208Z,2.98
2019-05-23T18:17:14.046Z,2.87
2019-05-23T18:22:42.029Z,3.02
2019-05-23T18:28:04.296Z,3.45
2019-05-23T18:33:27.823Z,3.27
2019-05-23T18:39:01.094Z,3.50
2019-05-23T18:44:22.941Z,3.58
2019-05-23T18:49:49.501Z,3.75
2019-05-23T18:55:14.734Z,3.60
2019-05-23T19:01:19.590Z,3.80
2019-05-23T19:06:42.745Z,3.50
2019-05-23T19:12:09.798Z,3.72
2019-05-23T19:17:37.706Z,3.45
2019-05-23T19:23:07.683Z,4.17
2019-05-23T19:28:41.323Z,5.22
2019-05-23T19:34:07.853Z,4.00
2019-05-23T19:39:41.154Z,4.47
2019-05-23T19:45:03.045Z,4.85
2019-05-23T19:50:26.510Z,4.35
2019-05-23T19:55:54.908Z,4.30
2019-05-23T20:01:36.068Z,4.40
2019-05-23T20:06:58.374Z,4.45
2019-05-23T20:12:20.849Z,5.30
2019-05-23T20:17:42.275Z,4.22
2019-05-23T20:23:04.085Z,4.25
2019-05-23T20:28:25.825Z,3.67
2019-05-23T20:33:48.170Z,3.33
2019-05-23T20:39:09.533Z,3.62
2019-05-23T20:44:31.359Z,3.80
2019-05-23T20:49:52.922Z,4.20
2019-05-23T20:55:14.666Z,4.20
2019-05-23T21:01:08.263Z,3.95
2019-05-23T21:06:30.029Z,4.00
2019-05-23T21:11:52.010Z,4.03
2019-05-23T21:17:13.460Z,3.60
2019-05-23T21:22:34.756Z,3.25
2019-05-23T21:27:56.529Z,3.08
2019-05-23T21:33:18.222Z,3.33
2019-05-23T21:38:39.450Z,3.47
2019-05-23T21:44:01.090Z,3.50
2019-05-23T21:49:22.718Z,3.40
2019-05-23T21:54:44.607Z,3.40
2019-05-23T22:00:47.688Z,3.20
2019-05-23T22:06:13.638Z,3.10
2019-05-23T22:11:35.568Z,3.40
2019-05-23T22:17:00.585Z,3.55
2019-05-23T22:22:25.165Z,3.37
2019-05-23T22:27:47.089Z,3.50
2019-05-23T22:33:09.066Z,3.72
2019-05-23T22:38:30.833Z,3.67
2019-05-23T22:43:52.136Z,3.50
2019-05-23T22:49:14.569Z,3.85
2019-05-23T22:54:36.325Z,3.90
2019-05-23T22:59:58.187Z,4.22
2019-05-23T23:05:20.123Z,4.60
2019-05-23T23:10:41.817Z,4.05
2019-05-23T23:16:03.636Z,3.90
2019-05-23T23:21:25.696Z,4.55
2019-05-23T23:26:47.245Z,4.37
2019-05-23T23:32:09.696Z,4.42
2019-05-23T23:37:31.460Z,4.85
2019-05-23T23:42:55.752Z,4.05
2019-05-23T23:48:35.339Z,3.87
2019-05-23T23:54:15.519Z,4.28
2019-05-23T23:59:36.942Z,4.20
